Time;durP1;ratioP1;P1;durP2;ratioP2;P2;SDS_P1;SDS_P2;PMS_P1;PMS_P2;Temp;Humidity;BMP_temperature;BMP_pressure;BME280_temperature;BME280_humidity;BME280_pressure;Samples;Min_cycle;Max_cycle;Signal;HPM_P1;HPM_P2
2023/03/26 00:01:57;;;;;;;21.17;4.05;;;;;;;;;;5075019;28;20044;-73
2023/03/26 00:04:24;;;;;;;18.60;3.92;;;;;;;;;;5055802;28;20094;-74
2023/03/26 00:06:50;;;;;;;16.50;3.58;;;;;;;;;;5055387;28;20060;-74
2023/03/26 00:09:17;;;;;;;22.02;3.70;;;;;;;;;;5055994;28;20110;-74
2023/03/26 00:11:45;;;;;;;17.02;3.67;;;;;;;;;;5074284;28;20056;-73
2023/03/26 00:14:12;;;;;;;19.73;4.18;;;;;;;;;;5038264;28;20045;-74
2023/03/26 00:16:40;;;;;;;18.90;3.88;;;;;;;;;;5056786;28;20086;-74
2023/03/26 00:19:07;;;;;;;18.40;4.20;;;;;;;;;;5074403;28;20097;-74
2023/03/26 00:21:33;;;;;;;18.88;4.15;;;;;;;;;;5074642;28;20393;-74
2023/03/26 00:24:05;;;;;;;22.23;3.60;;;;;;;;;;5056156;28;20526;-74
2023/03/26 00:26:32;;;;;;;20.27;4.47;;;;;;;;;;5074379;28;20396;-74
2023/03/26 00:28:59;;;;;;;20.92;3.95;;;;;;;;;;5056349;28;20040;-74
2023/03/26 00:31:25;;;;;;;20.10;3.83;;;;;;;;;;5056560;28;20059;-74
2023/03/26 00:33:55;;;;;;;23.27;4.47;;;;;;;;;;5056192;28;20082;-74
2023/03/26 00:36:24;;;;;;;16.13;3.50;;;;;;;;;;5056549;28;20388;-74
2023/03/26 00:38:51;;;;;;;20.52;3.83;;;;;;;;;;5024154;28;20055;-74
2023/03/26 00:41:29;;;;;;;19.83;3.63;;;;;;;;;;5052805;28;20040;-74
2023/03/26 00:43:56;;;;;;;20.55;3.90;;;;;;;;;;5053830;28;20052;-74
2023/03/26 00:46:26;;;;;;;17.10;4.40;;;;;;;;;;5054010;28;20099;-74
2023/03/26 00:48:52;;;;;;;22.77;4.13;;;;;;;;;;5053966;28;20063;-74
2023/03/26 00:51:19;;;;;;;20.45;4.05;;;;;;;;;;5053830;28;20044;-74
2023/03/26 00:53:46;;;;;;;18.50;3.97;;;;;;;;;;5035719;28;20485;-74
2023/03/26 00:56:13;;;;;;;16.17;3.90;;;;;;;;;;5036127;28;20115;-74
2023/03/26 00:58:39;;;;;;;17.52;3.65;;;;;;;;;;5053980;28;20098;-74
2023/03/26 01:01:07;;;;;;;19.60;3.70;;;;;;;;;;5036040;28;20067;-74
2023/03/26 01:03:35;;;;;;;21.60;4.18;;;;;;;;;;5053513;28;20383;-74
2023/03/26 01:06:03;;;;;;;18.55;3.80;;;;;;;;;;5053440;28;20049;-73
2023/03/26 01:08:33;;;;;;;19.17;3.83;;;;;;;;;;5053546;28;20049;-73
2023/03/26 01:11:02;;;;;;;14.82;3.45;;;;;;;;;;5035475;28;20083;-73
2023/03/26 01:13:30;;;;;;;17.60;3.92;;;;;;;;;;5053685;28;20049;-74
2023/03/26 01:15:56;;;;;;;21.58;4.18;;;;;;;;;;5053452;28;20121;-74
2023/03/26 01:18:25;;;;;;;14.48;3.30;;;;;;;;;;5053275;28;20051;-74
2023/03/26 01:20:57;;;;;;;17.63;3.65;;;;;;;;;;5035531;28;20053;-73
2023/03/26 01:23:27;;;;;;;17.95;3.75;;;;;;;;;;5053412;28;20139;-74
2023/03/26 01:26:12;;;;;;;20.38;3.58;;;;;;;;;;5035077;28;20052;-74
2023/03/26 01:28:40;;;;;;;17.67;3.67;;;;;;;;;;5035532;28;20496;-74
2023/03/26 01:31:16;;;;;;;20.10;3.97;;;;;;;;;;5018823;28;20378;-74
2023/03/26 01:33:47;;;;;;;23.27;4.00;;;;;;;;;;5052819;28;20033;-74
2023/03/26 01:36:15;;;;;;;19.85;4.00;;;;;;;;;;5032627;28;20045;-74
2023/03/26 01:38:48;;;;;;;18.10;3.85;;;;;;;;;;5051688;28;20047;-74
2023/03/26 01:41:34;;;;;;;16.80;3.92;;;;;;;;;;5035065;28;20053;-74
2023/03/26 01:44:04;;;;;;;17.23;3.90;;;;;;;;;;5022140;28;20049;-73
2023/03/26 01:46:35;;;;;;;20.20;4.28;;;;;;;;;;5032602;28;20052;-73
2023/03/26 01:49:01;;;;;;;21.00;4.00;;;;;;;;;;5050650;28;20092;-73
2023/03/26 01:51:29;;;;;;;20.05;3.78;;;;;;;;;;5033966;28;20049;-74
2023/03/26 01:53:56;;;;;;;21.30;3.53;;;;;;;;;;5034766;28;20041;-74
2023/03/26 01:56:28;;;;;;;24.02;3.85;;;;;;;;;;5034688;28;20094;-73
2023/03/26 01:59:06;;;;;;;24.48;4.25;;;;;;;;;;5052679;28;20406;-74
2023/03/26 02:01:43;;;;;;;19.10;4.18;;;;;;;;;;5034736;28;20044;-73
2023/03/26 02:04:09;;;;;;;22.52;4.15;;;;;;;;;;5017917;28;20049;-74
2023/03/26 02:07:00;;;;;;;20.23;4.43;;;;;;;;;;5052642;28;20045;-74
2023/03/26 02:09:28;;;;;;;24.75;4.18;;;;;;;;;;5050253;28;20136;-74
2023/03/26 02:11:55;;;;;;;23.08;4.57;;;;;;;;;;5032491;28;20144;-74
2023/03/26 02:14:21;;;;;;;20.95;3.97;;;;;;;;;;5052103;28;20053;-74
2023/03/26 02:16:47;;;;;;;24.45;4.28;;;;;;;;;;5052318;28;20524;-74
2023/03/26 02:19:20;;;;;;;20.73;4.00;;;;;;;;;;5034225;28;20080;-74
2023/03/26 02:21:49;;;;;;;15.80;3.90;;;;;;;;;;5052170;28;20048;-74
2023/03/26 02:24:15;;;;;;;26.90;4.82;;;;;;;;;;5051962;28;20113;-74
2023/03/26 02:26:41;;;;;;;16.00;3.78;;;;;;;;;;5052273;28;20045;-74
2023/03/26 02:29:08;;;;;;;20.38;4.10;;;;;;;;;;5052130;28;20051;-74
2023/03/26 02:31:34;;;;;;;24.52;4.05;;;;;;;;;;5034486;28;20041;-74
2023/03/26 02:34:00;;;;;;;19.70;4.70;;;;;;;;;;5051911;28;20041;-74
2023/03/26 02:36:26;;;;;;;17.08;3.60;;;;;;;;;;5052077;28;20405;-74
2023/03/26 02:38:53;;;;;;;17.30;4.07;;;;;;;;;;5051732;28;20451;-73
2023/03/26 02:41:20;;;;;;;21.38;4.38;;;;;;;;;;5052236;28;20056;-74
2023/03/26 02:43:46;;;;;;;20.92;4.28;;;;;;;;;;5033886;28;20048;-74
2023/03/26 02:46:12;;;;;;;19.88;4.20;;;;;;;;;;5051760;28;20478;-73
2023/03/26 02:48:40;;;;;;;16.83;4.15;;;;;;;;;;5034276;28;20071;-74
2023/03/26 02:51:06;;;;;;;24.02;4.93;;;;;;;;;;5033425;28;20140;-73
2023/03/26 02:53:32;;;;;;;22.00;4.25;;;;;;;;;;5051381;28;20045;-74
2023/03/26 02:55:59;;;;;;;19.83;3.70;;;;;;;;;;5017530;28;20041;-74
2023/03/26 02:58:25;;;;;;;19.77;3.38;;;;;;;;;;5034192;28;20064;-74
2023/03/26 03:00:55;;;;;;;22.30;4.20;;;;;;;;;;5051877;28;20048;-73
2023/03/26 03:03:23;;;;;;;18.08;4.15;;;;;;;;;;5052165;28;20235;-73
2023/03/26 03:05:55;;;;;;;25.25;4.05;;;;;;;;;;5055806;28;20055;-74
2023/03/26 03:08:23;;;;;;;21.38;4.15;;;;;;;;;;5056117;28;20179;-74
2023/03/26 03:10:59;;;;;;;21.80;3.88;;;;;;;;;;5037565;28;20493;-74
2023/03/26 03:13:25;;;;;;;20.85;3.88;;;;;;;;;;5038141;28;20401;-74
2023/03/26 03:15:51;;;;;;;22.08;3.80;;;;;;;;;;5055744;28;20394;-74
2023/03/26 03:18:17;;;;;;;20.38;3.97;;;;;;;;;;5055731;28;20490;-73
2023/03/26 03:20:43;;;;;;;22.52;3.70;;;;;;;;;;5055416;28;20045;-73
2023/03/26 03:23:10;;;;;;;19.77;3.80;;;;;;;;;;5055715;28;20405;-74
2023/03/26 03:25:37;;;;;;;21.67;4.30;;;;;;;;;;5037502;28;20049;-73
2023/03/26 03:28:03;;;;;;;18.85;3.85;;;;;;;;;;5021426;28;20045;-73
2023/03/26 03:30:29;;;;;;;23.75;4.00;;;;;;;;;;5037509;28;20584;-74
2023/03/26 03:32:57;;;;;;;20.00;4.30;;;;;;;;;;5037306;28;20186;-73
2023/03/26 03:35:23;;;;;;;23.55;4.80;;;;;;;;;;5037226;28;20463;-73
2023/03/26 03:37:50;;;;;;;21.83;4.00;;;;;;;;;;5062197;28;20040;-73
2023/03/26 03:40:16;;;;;;;27.55;4.45;;;;;;;;;;5074919;28;20482;-73
2023/03/26 03:42:42;;;;;;;22.35;3.70;;;;;;;;;;5056312;28;20114;-73
2023/03/26 03:45:08;;;;;;;16.17;3.38;;;;;;;;;;5074230;28;20485;-73
2023/03/26 03:47:34;;;;;;;20.00;4.18;;;;;;;;;;5040652;28;20048;-74
2023/03/26 03:50:00;;;;;;;25.40;4.45;;;;;;;;;;5074946;28;20047;-74
2023/03/26 03:52:27;;;;;;;22.05;4.50;;;;;;;;;;5074883;28;20040;-73
2023/03/26 03:54:55;;;;;;;23.73;3.92;;;;;;;;;;5056724;28;20045;-74
2023/03/26 03:57:21;;;;;;;24.45;4.22;;;;;;;;;;5075169;28;20057;-74
2023/03/26 03:59:48;;;;;;;23.38;4.00;;;;;;;;;;5074652;28;20445;-74
2023/03/26 04:02:19;;;;;;;19.30;4.28;;;;;;;;;;5074970;28;20506;-74
2023/03/26 04:04:49;;;;;;;18.92;3.58;;;;;;;;;;5074498;28;20052;-73
2023/03/26 04:07:15;;;;;;;20.30;4.25;;;;;;;;;;5056915;28;20473;-74
2023/03/26 04:09:41;;;;;;;18.33;3.50;;;;;;;;;;5056547;28;20037;-74
2023/03/26 04:12:07;;;;;;;19.23;3.70;;;;;;;;;;5074572;28;20048;-74
2023/03/26 04:14:33;;;;;;;25.02;4.20;;;;;;;;;;5074360;28;20049;-74
2023/03/26 04:16:59;;;;;;;28.50;4.20;;;;;;;;;;5074785;28;20059;-73
2023/03/26 04:19:26;;;;;;;20.38;4.18;;;;;;;;;;5056251;28;20046;-74
2023/03/26 04:21:53;;;;;;;23.48;4.00;;;;;;;;;;5074630;28;20056;-74
2023/03/26 04:24:21;;;;;;;19.10;3.92;;;;;;;;;;5056210;28;20056;-74
2023/03/26 04:26:48;;;;;;;23.52;4.07;;;;;;;;;;5073866;28;20131;-73
2023/03/26 04:29:15;;;;;;;19.30;4.07;;;;;;;;;;5071260;28;20049;-73
2023/03/26 04:31:42;;;;;;;21.98;3.97;;;;;;;;;;5072082;28;20045;-74
2023/03/26 04:34:13;;;;;;;19.65;4.32;;;;;;;;;;5073961;28;20052;-73
2023/03/26 04:36:41;;;;;;;16.63;3.55;;;;;;;;;;5056679;28;20060;-74
2023/03/26 04:39:09;;;;;;;19.58;3.97;;;;;;;;;;5055682;28;20075;-74
2023/03/26 04:41:36;;;;;;;27.08;3.88;;;;;;;;;;5074145;28;20080;-74
2023/03/26 04:44:02;;;;;;;20.40;3.72;;;;;;;;;;5055971;28;20044;-73
2023/03/26 04:46:32;;;;;;;19.45;4.00;;;;;;;;;;5074482;28;20045;-74
2023/03/26 04:48:59;;;;;;;17.17;3.33;;;;;;;;;;5072418;28;20389;-73
2023/03/26 04:51:33;;;;;;;17.73;3.75;;;;;;;;;;5074217;28;20056;-73
2023/03/26 04:54:01;;;;;;;18.15;3.30;;;;;;;;;;5056035;28;20097;-74
2023/03/26 04:56:46;;;;;;;21.60;3.78;;;;;;;;;;5073274;28;20558;-74
2023/03/26 04:59:15;;;;;;;15.57;3.33;;;;;;;;;;5073266;28;20112;-73
2023/03/26 05:01:44;;;;;;;17.10;3.20;;;;;;;;;;5073630;28;20040;-73
2023/03/26 05:04:11;;;;;;;14.82;3.63;;;;;;;;;;5072115;28;20135;-73
2023/03/26 05:06:37;;;;;;;15.02;3.30;;;;;;;;;;5071786;28;20464;-73
2023/03/26 05:09:03;;;;;;;17.90;3.50;;;;;;;;;;5055565;28;20097;-74
2023/03/26 05:11:29;;;;;;;16.70;3.58;;;;;;;;;;5073536;28;20416;-74
2023/03/26 05:13:56;;;;;;;23.13;3.80;;;;;;;;;;5073439;28;20056;-74
2023/03/26 05:16:23;;;;;;;12.00;2.95;;;;;;;;;;5055667;28;20082;-74
2023/03/26 05:18:50;;;;;;;16.58;3.20;;;;;;;;;;5055611;28;20382;-74
2023/03/26 05:21:16;;;;;;;21.65;3.72;;;;;;;;;;5055306;28;20048;-73
2023/03/26 05:23:42;;;;;;;21.73;3.60;;;;;;;;;;5073195;28;20051;-74
2023/03/26 05:26:09;;;;;;;17.83;3.33;;;;;;;;;;5072560;28;20401;-74
2023/03/26 05:28:35;;;;;;;18.70;3.38;;;;;;;;;;5073321;28;20109;-74
2023/03/26 05:31:01;;;;;;;18.38;3.45;;;;;;;;;;5072854;28;20044;-73
2023/03/26 05:33:28;;;;;;;18.15;3.30;;;;;;;;;;5072448;28;20045;-73
2023/03/26 05:36:01;;;;;;;18.30;3.67;;;;;;;;;;5037164;28;20040;-74
2023/03/26 05:38:28;;;;;;;16.85;3.13;;;;;;;;;;5054857;28;20124;-73
2023/03/26 05:40:58;;;;;;;19.10;3.20;;;;;;;;;;5072975;28;20139;-74
2023/03/26 05:43:24;;;;;;;22.13;4.10;;;;;;;;;;5054870;28;20040;-74
2023/03/26 05:45:50;;;;;;;19.52;3.58;;;;;;;;;;5072626;28;20048;-74
2023/03/26 05:48:17;;;;;;;16.33;3.25;;;;;;;;;;5055231;28;20116;-74
2023/03/26 05:50:43;;;;;;;18.05;3.60;;;;;;;;;;5054862;28;20500;-74
2023/03/26 05:53:09;;;;;;;20.60;3.30;;;;;;;;;;5054168;28;20051;-74
2023/03/26 05:55:35;;;;;;;18.73;3.28;;;;;;;;;;5069852;28;20070;-74
2023/03/26 05:58:01;;;;;;;19.88;2.90;;;;;;;;;;5053469;28;20097;-75
2023/03/26 06:00:27;;;;;;;22.45;3.30;;;;;;;;;;5034913;28;20053;-73
2023/03/26 06:02:57;;;;;;;20.60;3.47;;;;;;;;;;5070976;28;20070;-74
2023/03/26 06:05:25;;;;;;;15.40;3.13;;;;;;;;;;5072475;28;20048;-74
2023/03/26 06:07:51;;;;;;;15.25;3.38;;;;;;;;;;5054760;28;20048;-74
2023/03/26 06:10:17;;;;;;;21.70;3.35;;;;;;;;;;5072479;28;20121;-74
2023/03/26 06:12:43;;;;;;;17.00;3.47;;;;;;;;;;5072121;28;20048;-74
2023/03/26 06:15:09;;;;;;;24.23;3.95;;;;;;;;;;5069616;28;20106;-74
2023/03/26 06:17:35;;;;;;;16.80;3.45;;;;;;;;;;5052513;28;20083;-74
2023/03/26 06:20:04;;;;;;;16.88;3.30;;;;;;;;;;5054335;28;20044;-74
2023/03/26 06:22:30;;;;;;;15.38;3.20;;;;;;;;;;5072630;28;20131;-73
2023/03/26 06:24:56;;;;;;;14.10;3.08;;;;;;;;;;5072592;28;20334;-74
2023/03/26 06:27:22;;;;;;;21.60;4.00;;;;;;;;;;5054316;28;20045;-73
2023/03/26 06:29:48;;;;;;;17.83;3.35;;;;;;;;;;5069113;28;20052;-74
2023/03/26 06:32:14;;;;;;;19.40;4.00;;;;;;;;;;5072410;28;20042;-73
2023/03/26 06:34:41;;;;;;;14.55;3.47;;;;;;;;;;5072293;28;20400;-74
2023/03/26 06:37:07;;;;;;;17.95;3.58;;;;;;;;;;5071965;28;20521;-74
2023/03/26 06:39:33;;;;;;;18.50;3.28;;;;;;;;;;5071163;28;20045;-74
2023/03/26 06:41:59;;;;;;;16.17;3.40;;;;;;;;;;5054055;28;20037;-73
2023/03/26 06:44:25;;;;;;;21.85;3.65;;;;;;;;;;5071846;28;20052;-74
2023/03/26 06:46:51;;;;;;;13.13;3.10;;;;;;;;;;5072412;28;20048;-74
2023/03/26 06:49:17;;;;;;;13.90;3.72;;;;;;;;;;5053756;28;20051;-74
2023/03/26 06:51:45;;;;;;;11.50;3.15;;;;;;;;;;5072041;28;20174;-74
2023/03/26 06:54:11;;;;;;;19.42;3.75;;;;;;;;;;5053998;28;20393;-74
2023/03/26 06:56:37;;;;;;;20.00;3.78;;;;;;;;;;5072133;28;20127;-74
2023/03/26 06:59:03;;;;;;;15.73;3.17;;;;;;;;;;5053871;28;20131;-74
2023/03/26 07:01:29;;;;;;;19.85;3.13;;;;;;;;;;5054197;28;20423;-74
2023/03/26 07:03:55;;;;;;;13.90;3.05;;;;;;;;;;5072061;28;20132;-73
2023/03/26 07:06:21;;;;;;;16.00;3.25;;;;;;;;;;5053792;28;20087;-74
2023/03/26 07:08:47;;;;;;;15.00;3.33;;;;;;;;;;5053824;28;20086;-73
2023/03/26 07:11:15;;;;;;;16.27;3.00;;;;;;;;;;5071458;28;20398;-73
2023/03/26 07:13:41;;;;;;;17.67;3.15;;;;;;;;;;5053504;28;20442;-74
2023/03/26 07:16:07;;;;;;;18.52;3.08;;;;;;;;;;5071548;28;20056;-74
2023/03/26 07:18:33;;;;;;;24.85;3.63;;;;;;;;;;5069811;28;20049;-74
2023/03/26 07:20:59;;;;;;;15.82;3.30;;;;;;;;;;5035487;28;20044;-74
2023/03/26 07:23:26;;;;;;;12.93;2.67;;;;;;;;;;5071647;28;20040;-73
2023/03/26 07:25:52;;;;;;;14.48;3.60;;;;;;;;;;5071466;28;20119;-74
2023/03/26 07:28:37;;;;;;;17.65;3.42;;;;;;;;;;5053535;28;20052;-73
2023/03/26 07:31:18;;;;;;;17.17;2.92;;;;;;;;;;5053691;28;20048;-74
2023/03/26 07:33:48;;;;;;;12.63;3.30;;;;;;;;;;5071524;28;20451;-74
2023/03/26 07:36:20;;;;;;;15.32;3.30;;;;;;;;;;5071630;28;20048;-74
2023/03/26 07:39:06;;;;;;;17.25;3.30;;;;;;;;;;5053346;28;20044;-73
2023/03/26 07:41:37;;;;;;;18.17;3.72;;;;;;;;;;5071453;28;20084;-74
2023/03/26 07:44:22;;;;;;;14.63;3.08;;;;;;;;;;5052743;28;20377;-73
2023/03/26 07:46:52;;;;;;;16.90;3.33;;;;;;;;;;5053478;28;20083;-74
2023/03/26 07:49:20;;;;;;;14.90;3.53;;;;;;;;;;5053559;28;20056;-74
2023/03/26 07:51:46;;;;;;;17.23;3.60;;;;;;;;;;5075539;28;20052;-73
2023/03/26 07:54:12;;;;;;;13.73;2.78;;;;;;;;;;5074473;28;20050;-73
2023/03/26 07:56:57;;;;;;;17.92;2.83;;;;;;;;;;5057038;28;20044;-74
2023/03/26 07:59:26;;;;;;;15.68;3.40;;;;;;;;;;5074689;28;20048;-74
2023/03/26 08:01:52;;;;;;;14.75;2.80;;;;;;;;;;5074820;28;20040;-74
2023/03/26 08:04:38;;;;;;;13.68;2.90;;;;;;;;;;5056516;28;20131;-74
2023/03/26 08:07:07;;;;;;;16.15;3.13;;;;;;;;;;5075041;28;20397;-74
2023/03/26 08:09:53;;;;;;;15.25;3.10;;;;;;;;;;5074587;28;20397;-74
2023/03/26 08:12:38;;;;;;;17.80;2.90;;;;;;;;;;5056700;28;20369;-74
2023/03/26 08:15:24;;;;;;;16.95;2.83;;;;;;;;;;5040243;28;20416;-74
2023/03/26 08:17:59;;;;;;;11.38;3.00;;;;;;;;;;5056974;28;20123;-73
2023/03/26 08:20:31;;;;;;;16.07;2.80;;;;;;;;;;5074534;28;20090;-74
2023/03/26 08:23:16;;;;;;;12.93;3.38;;;;;;;;;;5056507;28;20298;-74
2023/03/26 08:25:41;;;;;;;15.02;2.70;;;;;;;;;;5056434;28;20448;-74
2023/03/26 08:28:26;;;;;;;11.98;2.83;;;;;;;;;;5056349;28;20044;-74
2023/03/26 08:30:55;;;;;;;17.15;3.45;;;;;;;;;;5056177;28;20515;-74
2023/03/26 08:33:22;;;;;;;12.48;2.92;;;;;;;;;;5039344;28;20044;-74
2023/03/26 08:35:48;;;;;;;14.52;2.90;;;;;;;;;;5056200;28;20060;-74
2023/03/26 08:38:16;;;;;;;14.60;3.10;;;;;;;;;;5045856;28;20052;-74
2023/03/26 08:40:42;;;;;;;12.27;2.80;;;;;;;;;;5053964;28;20048;-74
2023/03/26 08:43:20;;;;;;;11.18;2.47;;;;;;;;;;5053935;28;20041;-74
2023/03/26 08:45:50;;;;;;;11.25;2.72;;;;;;;;;;5053972;28;20445;-74
2023/03/26 08:48:42;;;;;;;12.90;2.58;;;;;;;;;;5019482;28;20131;-74
2023/03/26 08:51:09;;;;;;;14.98;2.90;;;;;;;;;;5013455;28;20092;-74
2023/03/26 08:53:44;;;;;;;11.48;2.67;;;;;;;;;;5035913;28;20041;-74
2023/03/26 08:56:13;;;;;;;11.68;2.80;;;;;;;;;;5053838;28;20073;-74
2023/03/26 08:58:56;;;;;;;11.20;2.78;;;;;;;;;;5035877;28;20056;-74
2023/03/26 09:01:32;;;;;;;10.90;2.75;;;;;;;;;;5053057;28;20125;-74
2023/03/26 09:04:07;;;;;;;10.80;2.70;;;;;;;;;;5053692;28;20052;-74
2023/03/26 09:06:46;;;;;;;12.38;2.97;;;;;;;;;;5035741;28;20401;-74
2023/03/26 09:09:18;;;;;;;13.25;3.00;;;;;;;;;;5053391;28;20045;-74
2023/03/26 09:12:04;;;;;;;9.57;2.75;;;;;;;;;;5018954;28;20374;-74
2023/03/26 09:14:39;;;;;;;12.68;3.00;;;;;;;;;;5035381;28;20053;-74
2023/03/26 09:17:14;;;;;;;13.07;2.72;;;;;;;;;;5053516;28;20155;-74
2023/03/26 09:19:46;;;;;;;14.63;2.70;;;;;;;;;;5052941;28;20045;-74
2023/03/26 09:22:31;;;;;;;15.00;3.03;;;;;;;;;;5035592;28;20052;-74
2023/03/26 09:24:57;;;;;;;8.48;2.50;;;;;;;;;;5052966;28;20482;-74
2023/03/26 09:27:23;;;;;;;13.50;2.78;;;;;;;;;;5053269;28;20175;-74
2023/03/26 09:30:08;;;;;;;11.85;2.80;;;;;;;;;;5050509;28;20045;-74
2023/03/26 09:32:41;;;;;;;12.10;2.85;;;;;;;;;;5034605;28;20053;-74
2023/03/26 09:35:11;;;;;;;10.63;2.58;;;;;;;;;;5053152;28;20056;-74
2023/03/26 09:37:57;;;;;;;8.40;2.70;;;;;;;;;;5052781;28;20313;-74
2023/03/26 09:40:43;;;;;;;13.82;2.72;;;;;;;;;;5052827;28;20045;-74
2023/03/26 09:43:36;;;;;;;12.35;2.78;;;;;;;;;;5024910;28;20397;-74
2023/03/26 09:46:07;;;;;;;11.52;2.95;;;;;;;;;;5052616;28;20096;-74
2023/03/26 09:48:52;;;;;;;10.40;2.75;;;;;;;;;;5034957;28;20140;-74
2023/03/26 09:51:54;;;;;;;13.38;2.80;;;;;;;;;;5052401;28;20053;-74
2023/03/26 09:54:23;;;;;;;14.23;3.42;;;;;;;;;;4955363;28;20046;-74
2023/03/26 09:56:49;;;;;;;10.68;2.60;;;;;;;;;;5020442;28;20147;-74
2023/03/26 09:59:20;;;;;;;9.30;2.90;;;;;;;;;;5017962;28;20037;-74
2023/03/26 10:02:05;;;;;;;14.77;2.85;;;;;;;;;;5034712;28;20125;-74
2023/03/26 10:04:46;;;;;;;13.00;2.60;;;;;;;;;;5034623;28;20456;-74
2023/03/26 10:07:15;;;;;;;11.80;3.13;;;;;;;;;;5034581;28;20489;-74
2023/03/26 10:09:47;;;;;;;16.65;2.88;;;;;;;;;;5034432;28;20040;-74
2023/03/26 10:12:20;;;;;;;11.65;2.85;;;;;;;;;;5033968;28;20405;-74
2023/03/26 10:14:52;;;;;;;14.73;2.80;;;;;;;;;;5034355;28;20431;-74
2023/03/26 10:17:36;;;;;;;13.20;2.70;;;;;;;;;;5034050;28;20059;-74
2023/03/26 10:20:23;;;;;;;17.80;2.92;;;;;;;;;;5051778;28;20076;-74
2023/03/26 10:23:08;;;;;;;14.13;3.20;;;;;;;;;;5034116;28;20150;-74
2023/03/26 10:25:46;;;;;;;10.32;2.72;;;;;;;;;;5017722;28;20056;-74
2023/03/26 10:28:30;;;;;;;11.40;2.78;;;;;;;;;;5034423;28;20569;-74
2023/03/26 10:30:57;;;;;;;8.25;2.63;;;;;;;;;;5034112;28;20124;-74
2023/03/26 10:33:38;;;;;;;18.05;2.97;;;;;;;;;;5033948;28;20064;-74
2023/03/26 10:36:25;;;;;;;13.15;3.08;;;;;;;;;;5034066;28;20049;-74
2023/03/26 10:39:10;;;;;;;14.27;2.70;;;;;;;;;;5049361;28;20037;-74
2023/03/26 10:41:36;;;;;;;12.20;2.70;;;;;;;;;;5072001;28;20465;-74
2023/03/26 10:44:20;;;;;;;12.40;3.17;;;;;;;;;;5071716;28;20036;-74
2023/03/26 10:46:56;;;;;;;11.32;2.70;;;;;;;;;;5054174;28;20103;-74
2023/03/26 10:49:48;;;;;;;14.63;3.05;;;;;;;;;;5071695;28;20041;-74
2023/03/26 10:52:22;;;;;;;13.27;2.47;;;;;;;;;;5053716;28;20045;-74
2023/03/26 10:54:53;;;;;;;12.77;3.50;;;;;;;;;;5071933;28;20040;-74
2023/03/26 10:57:26;;;;;;;12.40;2.90;;;;;;;;;;5071894;28;20055;-75
2023/03/26 10:59:55;;;;;;;16.08;3.00;;;;;;;;;;5071699;28;20044;-75
2023/03/26 11:02:28;;;;;;;14.35;3.05;;;;;;;;;;5071736;28;20044;-75
2023/03/26 11:05:03;;;;;;;11.77;2.80;;;;;;;;;;5053522;28;20041;-75
2023/03/26 11:07:29;;;;;;;7.43;2.40;;;;;;;;;;5072122;28;20044;-75
2023/03/26 11:09:55;;;;;;;10.25;2.65;;;;;;;;;;5053571;28;20064;-75
2023/03/26 11:12:25;;;;;;;11.63;2.85;;;;;;;;;;5071349;28;20080;-75
2023/03/26 11:15:03;;;;;;;14.68;3.15;;;;;;;;;;5071526;28;20052;-75
2023/03/26 11:17:32;;;;;;;12.35;2.63;;;;;;;;;;5037099;28;20131;-75
2023/03/26 11:20:25;;;;;;;11.15;2.83;;;;;;;;;;5071596;28;20053;-76
2023/03/26 11:23:29;;;;;;;12.77;2.47;;;;;;;;;;5030773;28;20060;-75
2023/03/26 11:25:58;;;;;;;12.95;2.50;;;;;;;;;;5012178;28;20530;-75
2023/03/26 11:28:40;;;;;;;9.68;2.45;;;;;;;;;;5013678;28;20110;-75
2023/03/26 11:31:15;;;;;;;10.20;2.63;;;;;;;;;;5050502;28;20114;-75
2023/03/26 11:33:44;;;;;;;8.80;2.67;;;;;;;;;;5040925;28;20131;-75
2023/03/26 11:36:16;;;;;;;13.50;3.30;;;;;;;;;;5075093;28;20225;-75
2023/03/26 11:38:53;;;;;;;11.10;2.35;;;;;;;;;;5053688;28;20444;-75
2023/03/26 11:41:19;;;;;;;12.38;2.35;;;;;;;;;;5037686;28;20052;-75
2023/03/26 11:43:49;;;;;;;10.05;3.15;;;;;;;;;;5037091;28;20485;-75
2023/03/26 11:46:17;;;;;;;12.05;2.47;;;;;;;;;;5054723;28;20529;-75
2023/03/26 11:49:05;;;;;;;11.43;2.63;;;;;;;;;;5055086;28;20450;-75
2023/03/26 11:51:36;;;;;;;9.35;2.47;;;;;;;;;;5054952;28;20045;-75
2023/03/26 11:54:02;;;;;;;10.88;2.53;;;;;;;;;;5054960;28;20045;-75
2023/03/26 11:56:28;;;;;;;9.40;2.60;;;;;;;;;;5055165;28;20045;-76
2023/03/26 11:59:08;;;;;;;8.80;2.10;;;;;;;;;;5037005;28;20041;-75
2023/03/26 12:01:40;;;;;;;14.32;2.47;;;;;;;;;;5054841;28;20064;-75
2023/03/26 12:04:15;;;;;;;10.73;2.58;;;;;;;;;;5054628;28;20045;-76
2023/03/26 12:06:52;;;;;;;10.23;2.63;;;;;;;;;;5054931;28;20383;-75
2023/03/26 12:09:19;;;;;;;15.25;2.60;;;;;;;;;;5020193;28;20482;-75
2023/03/26 12:11:47;;;;;;;10.60;2.90;;;;;;;;;;5036625;28;20056;-75
2023/03/26 12:14:17;;;;;;;8.07;2.38;;;;;;;;;;5054371;28;20049;-75
2023/03/26 12:17:04;;;;;;;9.32;2.50;;;;;;;;;;5036921;28;20095;-75
2023/03/26 12:19:49;;;;;;;12.68;2.35;;;;;;;;;;5036528;28;20143;-75
2023/03/26 12:22:35;;;;;;;10.50;2.83;;;;;;;;;;5054513;28;20048;-75
2023/03/26 12:25:01;;;;;;;;;;;;;;;;;;5036503;28;20060;-75
2023/03/26 12:27:29;;;;;;;13.35;2.85;;;;;;;;;;5054503;28;19927;-75
2023/03/26 12:29:59;;;;;;;11.30;2.60;;;;;;;;;;5054221;28;20166;-75
2023/03/26 12:32:25;;;;;;;9.52;2.30;;;;;;;;;;5054312;28;20052;-75
2023/03/26 12:34:51;;;;;;;10.10;2.47;;;;;;;;;;5052027;28;20426;-75
2023/03/26 12:37:37;;;;;;;12.27;2.60;;;;;;;;;;5050794;28;20048;-75
2023/03/26 12:40:26;;;;;;;12.18;2.40;;;;;;;;;;5036514;28;20053;-75
2023/03/26 12:43:00;;;;;;;11.20;2.50;;;;;;;;;;5042621;28;20112;-75
2023/03/26 12:45:41;;;;;;;7.78;2.30;;;;;;;;;;5033023;28;20128;-75
2023/03/26 12:48:09;;;;;;;8.70;2.20;;;;;;;;;;5052612;28;20484;-75
2023/03/26 12:50:40;;;;;;;9.25;2.22;;;;;;;;;;5035963;28;20052;-75
2023/03/26 12:53:27;;;;;;;10.82;2.20;;;;;;;;;;5053683;28;20183;-75
2023/03/26 12:55:54;;;;;;;9.65;2.72;;;;;;;;;;5035900;28;20048;-75
2023/03/26 12:58:37;;;;;;;7.93;2.60;;;;;;;;;;5053645;28;20048;-75
2023/03/26 13:01:14;;;;;;;9.50;2.08;;;;;;;;;;5053635;28;20052;-75
2023/03/26 13:03:59;;;;;;;7.85;2.30;;;;;;;;;;5019041;28;20049;-75
2023/03/26 13:06:30;;;;;;;16.58;2.63;;;;;;;;;;5053347;28;20074;-75
2023/03/26 13:09:03;;;;;;;11.88;2.40;;;;;;;;;;5035594;28;20052;-75
2023/03/26 13:11:38;;;;;;;11.25;2.50;;;;;;;;;;5053326;28;20497;-75
2023/03/26 13:14:10;;;;;;;9.38;2.35;;;;;;;;;;5035303;28;20107;-75
2023/03/26 13:16:42;;;;;;;8.25;2.28;;;;;;;;;;5051440;28;20410;-74
2023/03/26 13:19:14;;;;;;;11.93;2.60;;;;;;;;;;5051383;28;20462;-73
2023/03/26 13:21:46;;;;;;;9.35;2.20;;;;;;;;;;5053152;28;20064;-73
2023/03/26 13:24:27;;;;;;;12.32;2.47;;;;;;;;;;5052931;28;20398;-73
2023/03/26 13:26:56;;;;;;;11.95;2.33;;;;;;;;;;5053314;28;20469;-73
2023/03/26 13:29:45;;;;;;;14.75;2.53;;;;;;;;;;5053224;28;20485;-73
2023/03/26 13:32:30;;;;;;;11.68;2.83;;;;;;;;;;5053191;28;20056;-73
2023/03/26 13:34:56;;;;;;;10.48;2.13;;;;;;;;;;5052872;28;20397;-74
2023/03/26 13:37:25;;;;;;;8.57;2.38;;;;;;;;;;5055979;28;20040;-73
2023/03/26 13:40:10;;;;;;;8.90;2.42;;;;;;;;;;5072397;28;20052;-73
2023/03/26 13:42:50;;;;;;;8.15;2.28;;;;;;;;;;5054567;28;20512;-73
2023/03/26 13:45:34;;;;;;;6.40;2.05;;;;;;;;;;5072734;28;20040;-73
2023/03/26 13:48:02;;;;;;;11.93;2.35;;;;;;;;;;5072279;28;20063;-73
2023/03/26 13:50:30;;;;;;;8.48;2.53;;;;;;;;;;5072629;28;20055;-73
2023/03/26 13:53:19;;;;;;;7.57;2.22;;;;;;;;;;5036260;28;20381;-73
2023/03/26 13:55:49;;;;;;;8.27;2.30;;;;;;;;;;5063140;28;20055;-73
2023/03/26 13:58:33;;;;;;;7.43;2.38;;;;;;;;;;5054658;28;20041;-73
2023/03/26 14:01:08;;;;;;;10.82;2.53;;;;;;;;;;5071931;28;20142;-73
2023/03/26 14:03:46;;;;;;;9.10;2.53;;;;;;;;;;5054626;28;20044;-74
2023/03/26 14:06:16;;;;;;;10.90;2.53;;;;;;;;;;5054587;28;20447;-74
2023/03/26 14:08:44;;;;;;;11.45;2.40;;;;;;;;;;5072397;28;20040;-73
2023/03/26 14:11:22;;;;;;;11.05;2.63;;;;;;;;;;5072031;28;20127;-73
2023/03/26 14:13:54;;;;;;;10.05;2.17;;;;;;;;;;5054342;28;20056;-73
2023/03/26 14:16:23;;;;;;;8.20;2.55;;;;;;;;;;5070325;28;20044;-73
2023/03/26 14:19:18;;;;;;;8.10;2.08;;;;;;;;;;5072309;28;20040;-74
2023/03/26 14:21:47;;;;;;;7.53;2.20;;;;;;;;;;5041324;28;20142;-73
2023/03/26 14:24:19;;;;;;;8.65;2.13;;;;;;;;;;5052119;28;20124;-73
2023/03/26 14:26:58;;;;;;;8.15;2.28;;;;;;;;;;5052320;28;20052;-73
2023/03/26 14:29:30;;;;;;;12.82;2.55;;;;;;;;;;5071793;28;20436;-74
2023/03/26 14:32:32;;;;;;;11.32;2.75;;;;;;;;;;5072106;28;20121;-73
2023/03/26 14:34:58;;;;;;;8.05;2.22;;;;;;;;;;4993521;28;20111;-73
2023/03/26 14:37:30;;;;;;;8.68;2.55;;;;;;;;;;5059332;28;20048;-74
2023/03/26 14:40:22;;;;;;;9.60;2.78;;;;;;;;;;5071861;28;20052;-74
2023/03/26 14:42:51;;;;;;;9.00;2.15;;;;;;;;;;5069050;28;20382;-75
2023/03/26 14:45:26;;;;;;;9.45;2.10;;;;;;;;;;5020641;28;20409;-74
2023/03/26 14:48:12;;;;;;;9.65;2.15;;;;;;;;;;5017508;28;20168;-74
2023/03/26 14:50:53;;;;;;;13.82;3.00;;;;;;;;;;5051637;28;20052;-74
2023/03/26 14:53:32;;;;;;;15.70;2.55;;;;;;;;;;5051580;28;20114;-74
2023/03/26 14:56:16;;;;;;;8.52;2.72;;;;;;;;;;5051792;28;20509;-74
2023/03/26 14:58:54;;;;;;;14.48;2.63;;;;;;;;;;5051940;28;20444;-74